createdAt,value
2018-03-18T00:00:35.913Z,-2.80
2018-03-18T00:03:03.764Z,-2.71
2018-03-18T00:05:32.485Z,-2.74
2018-03-18T00:08:00.009Z,-2.88
2018-03-18T00:10:27.710Z,-2.98
2018-03-18T00:12:55.263Z,-2.93
2018-03-18T00:15:22.997Z,-2.89
2018-03-18T00:17:50.547Z,-2.93
2018-03-18T00:20:19.041Z,-2.96
2018-03-18T00:22:46.838Z,-3.03
2018-03-18T00:25:14.445Z,-3.07
2018-03-18T00:27:43.335Z,-3.17
2018-03-18T00:30:12.838Z,-3.18
2018-03-18T00:32:42.256Z,-3.19
2018-03-18T00:35:09.846Z,-3.19
2018-03-18T00:37:37.676Z,-3.13
2018-03-18T00:40:05.235Z,-3.09
2018-03-18T00:42:32.709Z,-3.06
2018-03-18T00:45:00.181Z,-3.02
2018-03-18T00:47:27.686Z,-2.92
2018-03-18T00:49:55.153Z,-2.88
2018-03-18T00:52:22.644Z,-2.91
2018-03-18T00:54:50.151Z,-2.96
2018-03-18T00:57:17.723Z,-2.99
2018-03-18T00:59:45.197Z,-3.01
2018-03-18T01:02:13.249Z,-2.96
2018-03-18T01:04:40.762Z,-2.93
2018-03-18T01:07:08.285Z,-2.87
2018-03-18T01:09:36.078Z,-2.84
2018-03-18T01:12:03.698Z,-2.98
2018-03-18T01:14:31.461Z,-3.01
2018-03-18T01:16:59.004Z,-2.95
2018-03-18T01:19:26.637Z,-2.92
2018-03-18T01:21:54.648Z,-3.08
2018-03-18T01:24:22.162Z,-3.10
2018-03-18T01:26:49.660Z,-3.09
2018-03-18T01:29:17.166Z,-3.08
2018-03-18T01:31:44.647Z,-3.07
2018-03-18T01:34:12.198Z,-3.00
2018-03-18T01:36:39.672Z,-2.97
2018-03-18T01:39:07.163Z,-3.07
2018-03-18T01:41:34.632Z,-3.08
2018-03-18T01:44:02.119Z,-3.01
2018-03-18T01:46:29.766Z,-3.06
2018-03-18T01:48:57.259Z,-3.08
2018-03-18T01:51:24.771Z,-3.19
2018-03-18T01:53:52.252Z,-3.08
2018-03-18T01:56:19.792Z,-3.15
2018-03-18T01:58:47.284Z,-3.11
2018-03-18T02:01:14.776Z,-3.09
2018-03-18T02:03:42.240Z,-3.17
2018-03-18T02:06:09.741Z,-3.10
2018-03-18T02:08:38.224Z,-3.08
2018-03-18T02:11:05.725Z,-3.00
2018-03-18T02:13:33.240Z,-3.19
2018-03-18T02:16:00.704Z,-3.15
2018-03-18T02:18:29.139Z,-3.20
2018-03-18T02:20:56.607Z,-3.18
2018-03-18T02:23:24.126Z,-3.14
2018-03-18T02:25:51.664Z,-3.22
2018-03-18T02:28:19.168Z,-3.19
2018-03-18T02:30:46.887Z,-3.18
2018-03-18T02:33:14.782Z,-3.20
2018-03-18T02:35:43.482Z,-3.27
2018-03-18T02:38:10.944Z,-3.22
2018-03-18T02:40:38.420Z,-3.20
2018-03-18T02:43:05.905Z,-3.26
2018-03-18T02:45:33.414Z,-3.18
2018-03-18T02:48:01.503Z,-3.12
2018-03-18T02:50:29.133Z,-3.12
2018-03-18T02:52:56.622Z,-3.21
2018-03-18T02:55:24.115Z,-3.15
2018-03-18T02:57:51.579Z,-3.18
2018-03-18T03:00:19.061Z,-3.34
2018-03-18T03:02:46.542Z,-3.25
2018-03-18T03:05:14.018Z,-3.30
2018-03-18T03:07:41.506Z,-3.16
2018-03-18T03:10:08.999Z,-3.23
2018-03-18T03:12:36.465Z,-3.43
2018-03-18T03:15:03.956Z,-3.52
2018-03-18T03:17:31.448Z,-3.39
2018-03-18T03:19:59.005Z,-3.29
2018-03-18T03:22:26.496Z,-3.32
2018-03-18T03:24:53.975Z,-3.23
2018-03-18T03:27:21.501Z,-3.27
2018-03-18T03:29:49.032Z,-3.37
2018-03-18T03:32:16.576Z,-3.38
2018-03-18T03:34:44.086Z,-3.47
2018-03-18T03:37:11.539Z,-3.58
2018-03-18T03:39:40.157Z,-3.59
2018-03-18T03:42:07.629Z,-3.60
2018-03-18T03:44:35.164Z,-3.63
2018-03-18T03:47:02.673Z,-3.65
2018-03-18T03:49:30.135Z,-3.67
2018-03-18T03:51:57.613Z,-3.69
2018-03-18T03:54:25.256Z,-3.69
2018-03-18T03:56:52.739Z,-3.71
2018-03-18T03:59:20.219Z,-3.71
2018-03-18T04:01:47.687Z,-3.76
2018-03-18T04:04:15.317Z,-3.66
2018-03-18T04:06:43.026Z,-3.66
2018-03-18T04:09:10.512Z,-3.80
2018-03-18T04:11:37.984Z,-3.83
2018-03-18T04:14:05.455Z,-3.67
2018-03-18T04:16:32.946Z,-3.63
2018-03-18T04:19:00.439Z,-3.62
2018-03-18T04:21:27.919Z,-3.67
2018-03-18T04:23:55.411Z,-3.63
2018-03-18T04:26:22.893Z,-3.85
2018-03-18T04:28:50.372Z,-3.86
2018-03-18T04:31:17.866Z,-3.84
2018-03-18T04:33:45.955Z,-3.79
2018-03-18T04:36:13.476Z,-3.87
2018-03-18T04:38:40.934Z,-3.91
2018-03-18T04:41:08.405Z,-3.90
2018-03-18T04:43:35.880Z,-3.87
2018-03-18T04:46:03.344Z,-3.90
2018-03-18T04:48:30.836Z,-3.81
2018-03-18T04:50:58.331Z,-3.84
2018-03-18T04:53:25.788Z,-3.86
2018-03-18T04:55:53.283Z,-3.94
2018-03-18T04:58:20.750Z,-3.97
2018-03-18T05:00:48.223Z,-3.91
2018-03-18T05:03:15.904Z,-3.88
2018-03-18T05:05:43.422Z,-3.88
2018-03-18T05:08:10.895Z,-3.95
2018-03-18T05:10:38.382Z,-3.87
2018-03-18T05:13:05.862Z,-4.01
2018-03-18T05:15:33.358Z,-3.90
2018-03-18T05:18:00.879Z,-3.92
2018-03-18T05:20:28.402Z,-3.91
2018-03-18T05:22:55.875Z,-3.92
2018-03-18T05:25:23.356Z,-3.91
2018-03-18T05:27:50.844Z,-3.95
2018-03-18T05:30:18.378Z,-3.90
2018-03-18T05:32:45.860Z,-3.95
2018-03-18T05:35:13.606Z,-3.89
2018-03-18T05:37:41.092Z,-3.95
2018-03-18T05:40:08.583Z,-3.96
2018-03-18T05:42:36.073Z,-3.99
2018-03-18T05:45:03.552Z,-3.99
2018-03-18T05:47:31.019Z,-4.05
2018-03-18T05:49:58.521Z,-3.93
2018-03-18T05:52:26.221Z,-3.88
2018-03-18T05:54:53.695Z,-3.83
2018-03-18T05:57:21.179Z,-3.89
2018-03-18T05:59:48.661Z,-3.97
2018-03-18T06:02:16.168Z,-3.83
2018-03-18T06:04:44.703Z,-3.72
2018-03-18T06:07:12.179Z,-3.62
2018-03-18T06:09:39.760Z,-3.75
2018-03-18T06:12:07.223Z,-3.65
2018-03-18T06:14:34.678Z,-3.66
2018-03-18T06:17:02.152Z,-3.51
2018-03-18T06:19:29.615Z,-3.58
2018-03-18T06:21:57.161Z,-3.56
2018-03-18T06:24:25.256Z,-3.52
2018-03-18T06:26:52.746Z,-3.66
2018-03-18T06:29:20.224Z,-3.72
2018-03-18T06:31:47.723Z,-3.53
2018-03-18T06:34:15.340Z,-3.36
2018-03-18T06:36:42.823Z,-3.34
2018-03-18T06:39:10.311Z,-3.23
2018-03-18T06:41:37.794Z,-3.21
2018-03-18T06:44:05.279Z,-3.19
2018-03-18T06:46:32.736Z,-3.17
2018-03-18T06:49:00.285Z,-3.28
2018-03-18T06:51:27.749Z,-3.17
2018-03-18T06:53:55.212Z,-3.26
2018-03-18T06:56:22.675Z,-3.36
2018-03-18T06:58:50.146Z,-3.14
2018-03-18T07:01:17.663Z,-2.86
2018-03-18T07:03:45.136Z,-3.14
2018-03-18T07:06:13.372Z,-3.14
2018-03-18T07:08:40.859Z,-3.26
2018-03-18T07:11:09.206Z,-3.26
2018-03-18T07:13:36.677Z,-3.09
2018-03-18T07:16:04.220Z,-2.82
2018-03-18T07:18:31.712Z,-2.68
2018-03-18T07:20:59.176Z,-2.62
2018-03-18T07:23:26.646Z,-2.77
2018-03-18T07:25:54.123Z,-2.74
2018-03-18T07:28:21.572Z,-2.52
2018-03-18T07:30:49.112Z,-2.81
2018-03-18T07:33:16.576Z,-2.93
2018-03-18T07:35:44.076Z,-2.58
2018-03-18T07:38:11.770Z,-2.49
2018-03-18T07:40:39.209Z,-2.71
2018-03-18T07:43:06.681Z,-2.55
2018-03-18T07:45:34.183Z,-2.46
2018-03-18T07:48:01.733Z,-2.36
2018-03-18T07:50:29.299Z,-2.54
2018-03-18T07:52:56.801Z,-2.75
2018-03-18T07:55:24.328Z,-2.68
2018-03-18T07:57:51.823Z,-2.78
2018-03-18T08:00:19.294Z,-2.91
2018-03-18T08:02:46.765Z,-2.86
2018-03-18T08:05:14.239Z,-2.90
2018-03-18T08:07:43.044Z,-2.70
2018-03-18T08:10:10.517Z,-2.81
2018-03-18T08:12:37.968Z,-2.52
2018-03-18T08:15:05.449Z,-2.47
2018-03-18T08:17:33.997Z,-2.36
2018-03-18T08:20:01.464Z,-2.51
2018-03-18T08:22:29.107Z,-2.56
2018-03-18T08:24:56.571Z,-2.51
2018-03-18T08:27:24.020Z,-2.55
2018-03-18T08:29:51.522Z,-2.48
2018-03-18T08:32:18.982Z,-2.57
2018-03-18T08:34:46.493Z,-2.35
2018-03-18T08:37:14.019Z,-2.33
2018-03-18T08:39:41.498Z,-2.19
2018-03-18T08:42:08.963Z,-2.22
2018-03-18T08:44:36.614Z,-2.26
2018-03-18T08:47:04.136Z,-1.83
2018-03-18T08:49:31.631Z,-1.91
2018-03-18T08:51:59.597Z,-1.97
2018-03-18T08:54:27.176Z,-1.86
2018-03-18T08:56:54.863Z,-1.61
2018-03-18T08:59:22.324Z,-1.65
2018-03-18T09:01:49.785Z,-1.87
2018-03-18T09:04:17.317Z,-1.73
2018-03-18T09:06:44.803Z,-1.61
2018-03-18T09:09:12.292Z,-1.73
2018-03-18T09:11:39.803Z,-1.75
2018-03-18T09:14:07.289Z,-1.79
2018-03-18T09:16:34.769Z,-1.81
2018-03-18T09:19:02.268Z,-1.69
2018-03-18T09:21:29.784Z,-1.77
2018-03-18T09:23:57.241Z,-1.58
2018-03-18T09:26:24.703Z,-1.82
2018-03-18T09:28:52.191Z,-1.59
2018-03-18T09:31:19.680Z,-1.43
2018-03-18T09:33:47.108Z,-1.31
2018-03-18T09:36:14.615Z,-1.09
2018-03-18T09:38:42.095Z,-0.61
2018-03-18T09:41:09.575Z,-0.87
2018-03-18T09:43:37.060Z,-0.91
2018-03-18T09:46:04.550Z,-0.69
2018-03-18T09:48:32.042Z,-0.30
2018-03-18T09:50:59.510Z,-0.41
2018-03-18T09:53:27.023Z,-0.63
2018-03-18T09:55:54.491Z,-0.73
2018-03-18T09:58:21.945Z,-0.62
2018-03-18T10:00:49.437Z,-1.04
2018-03-18T10:03:16.983Z,-0.95
2018-03-18T10:05:44.462Z,-0.36
2018-03-18T10:08:11.928Z,-0.13
2018-03-18T10:10:39.390Z,-0.38
2018-03-18T10:13:06.854Z,-0.19
2018-03-18T10:15:34.318Z,0.08
2018-03-18T10:18:01.812Z,-0.04
2018-03-18T10:20:29.885Z,0.23
2018-03-18T10:22:57.376Z,-0.03
2018-03-18T10:25:24.844Z,0.74
2018-03-18T10:27:52.317Z,0.88
2018-03-18T10:30:19.769Z,0.73
2018-03-18T10:32:47.234Z,0.51
2018-03-18T10:35:14.742Z,0.33
2018-03-18T10:37:42.384Z,0.32
2018-03-18T10:40:10.816Z,0.08
2018-03-18T10:42:38.327Z,0.32
2018-03-18T10:45:05.795Z,0.38
2018-03-18T10:47:33.291Z,0.70
2018-03-18T10:50:00.774Z,0.71
2018-03-18T10:52:28.280Z,1.06
2018-03-18T10:54:55.746Z,0.45
2018-03-18T10:57:23.211Z,0.79
2018-03-18T10:59:50.682Z,0.63
2018-03-18T11:02:18.280Z,0.59
2018-03-18T11:04:45.760Z,0.26
2018-03-18T11:07:13.224Z,-0.19
2018-03-18T11:09:40.689Z,0.57
2018-03-18T11:12:08.204Z,0.48
2018-03-18T11:14:36.756Z,0.17
2018-03-18T11:17:04.274Z,0.18
2018-03-18T11:19:31.762Z,0.14
2018-03-18T11:21:59.409Z,0.41
2018-03-18T11:24:27.280Z,0.76
2018-03-18T11:26:54.974Z,0.64
2018-03-18T11:29:22.488Z,0.94
2018-03-18T11:31:50.132Z,0.78
2018-03-18T11:34:23.692Z,0.91
2018-03-18T11:36:52.204Z,0.79
2018-03-18T11:44:25.269Z,1.56
2018-03-18T11:46:52.746Z,1.66
2018-03-18T11:49:25.341Z,1.62
2018-03-18T11:51:53.117Z,1.92
2018-03-18T11:54:20.701Z,2.08
2018-03-18T11:56:52.886Z,1.82
2018-03-18T11:59:20.565Z,1.76
2018-03-18T12:01:48.630Z,1.65
2018-03-18T12:04:17.385Z,1.82
2018-03-18T12:06:45.408Z,1.79
2018-03-18T12:09:13.315Z,1.82
2018-03-18T12:11:46.061Z,1.56
2018-03-18T12:14:13.646Z,1.54
2018-03-18T12:16:42.600Z,1.31
2018-03-18T12:19:10.247Z,1.36
2018-03-18T12:21:37.761Z,1.59
2018-03-18T12:24:05.786Z,1.28
2018-03-18T12:26:35.956Z,0.87
2018-03-18T12:29:03.487Z,0.96
2018-03-18T12:31:30.988Z,1.10
2018-03-18T12:33:59.735Z,1.22
2018-03-18T12:36:27.456Z,1.21
2018-03-18T12:38:56.264Z,1.07
2018-03-18T12:41:24.522Z,1.33
2018-03-18T12:43:52.081Z,1.07
2018-03-18T12:46:19.568Z,1.22
2018-03-18T12:48:48.582Z,1.51
2018-03-18T12:51:16.772Z,1.43
2018-03-18T12:53:44.256Z,1.40
2018-03-18T12:56:11.871Z,1.53
2018-03-18T12:58:40.416Z,1.20
2018-03-18T13:01:09.682Z,1.66
2018-03-18T13:03:37.186Z,1.93
2018-03-18T13:06:04.678Z,1.36
2018-03-18T13:08:32.228Z,0.78
2018-03-18T13:10:59.791Z,0.81
2018-03-18T13:13:28.849Z,0.62
2018-03-18T13:15:56.375Z,0.85
2018-03-18T13:18:23.943Z,0.74
2018-03-18T13:20:52.386Z,0.83
2018-03-18T13:23:19.863Z,0.77
2018-03-18T13:25:47.324Z,0.66
2018-03-18T13:28:15.794Z,0.76
2018-03-18T13:30:44.113Z,0.69
2018-03-18T13:33:12.830Z,1.01
2018-03-18T13:35:41.783Z,0.73
2018-03-18T13:38:09.363Z,0.59
2018-03-18T13:40:37.011Z,0.49
2018-03-18T13:43:05.044Z,0.40
2018-03-18T13:45:32.679Z,0.56
2018-03-18T13:48:00.152Z,0.45
2018-03-18T13:50:27.618Z,0.57
2018-03-18T13:52:55.150Z,0.49
2018-03-18T13:55:22.645Z,0.58
2018-03-18T13:57:50.173Z,0.41
2018-03-18T14:00:17.663Z,0.17
2018-03-18T14:02:45.135Z,0.25
2018-03-18T14:05:13.701Z,0.21
2018-03-18T14:07:41.233Z,0.19
2018-03-18T14:10:08.708Z,0.43
2018-03-18T14:12:36.209Z,0.43
2018-03-18T14:15:03.763Z,0.38
2018-03-18T14:17:31.228Z,0.25
2018-03-18T14:19:58.973Z,0.34
2018-03-18T14:22:26.491Z,0.20
2018-03-18T14:27:26.269Z,-0.04
2018-03-18T14:29:53.749Z,0.02
2018-03-18T14:32:21.232Z,-0.02
2018-03-18T14:34:48.784Z,-0.03
2018-03-18T14:37:16.311Z,0.23
2018-03-18T14:39:43.777Z,0.17
2018-03-18T14:42:11.407Z,0.00
2018-03-18T14:44:39.058Z,0.07
2018-03-18T14:47:06.588Z,0.28
2018-03-18T14:49:34.102Z,0.33
2018-03-18T14:52:02.253Z,0.13
2018-03-18T14:54:29.736Z,-0.04
2018-03-18T14:56:57.212Z,-0.15
2018-03-18T14:59:24.708Z,-0.04
2018-03-18T15:01:52.185Z,-0.17
2018-03-18T15:04:19.704Z,0.00
2018-03-18T15:06:47.276Z,0.11
2018-03-18T15:09:14.798Z,0.21
2018-03-18T15:11:42.291Z,0.29
2018-03-18T15:14:09.746Z,0.16
2018-03-18T15:16:37.235Z,0.06
2018-03-18T15:19:04.802Z,0.27
2018-03-18T15:21:32.420Z,0.22
2018-03-18T15:24:00.580Z,0.18
2018-03-18T15:26:28.148Z,-0.06
2018-03-18T15:28:55.652Z,-0.08
2018-03-18T15:31:23.260Z,-0.03
2018-03-18T15:33:50.827Z,-0.08
2018-03-18T15:36:18.296Z,-0.11
2018-03-18T15:41:21.969Z,-0.34
2018-03-18T15:43:49.510Z,-0.45
2018-03-18T15:46:17.276Z,-0.48
2018-03-18T15:48:46.408Z,-0.44
2018-03-18T15:51:15.736Z,-0.41
2018-03-18T15:53:43.286Z,-0.54
2018-03-18T15:56:10.798Z,-0.54
2018-03-18T15:58:38.331Z,-0.60
2018-03-18T16:01:05.823Z,-0.65
2018-03-18T16:03:33.393Z,-0.64
2018-03-18T16:06:01.820Z,-0.71
2018-03-18T16:08:30.197Z,-0.64
2018-03-18T16:10:57.726Z,-0.75
2018-03-18T16:13:25.238Z,-0.74
2018-03-18T16:15:53.130Z,-0.71
2018-03-18T16:18:20.690Z,-0.73
2018-03-18T16:20:48.151Z,-0.73
2018-03-18T16:23:15.669Z,-0.79
2018-03-18T16:25:44.501Z,-0.73
2018-03-18T16:28:12.043Z,-0.73
2018-03-18T16:30:51.239Z,-0.69
2018-03-18T16:33:20.159Z,-0.80
2018-03-18T16:35:48.379Z,-0.83
2018-03-18T16:38:18.592Z,-0.81
2018-03-18T16:40:46.419Z,-0.83
2018-03-18T16:43:14.189Z,-0.88
2018-03-18T16:45:42.686Z,-0.84
2018-03-18T16:48:10.165Z,-0.77
2018-03-18T16:50:37.797Z,-0.86
2018-03-18T16:53:05.407Z,-0.81
2018-03-18T16:55:32.909Z,-0.86
2018-03-18T16:58:00.429Z,-0.90
2018-03-18T17:00:29.004Z,-0.87
2018-03-18T17:02:56.524Z,-0.93
2018-03-18T17:05:24.056Z,-0.98
2018-03-18T17:07:51.534Z,-0.93
2018-03-18T17:10:19.708Z,-1.02
2018-03-18T17:12:47.385Z,-1.07
2018-03-18T17:15:15.092Z,-1.16
2018-03-18T17:17:42.631Z,-1.12
2018-03-18T17:20:10.233Z,-1.08
2018-03-18T17:22:40.699Z,-1.06
2018-03-18T17:25:08.195Z,-0.99
2018-03-18T17:27:35.759Z,-1.02
2018-03-18T17:30:03.275Z,-1.03
2018-03-18T17:32:33.749Z,-1.13
2018-03-18T17:35:01.293Z,-1.19
2018-03-18T17:37:28.824Z,-1.11
2018-03-18T17:39:56.433Z,-1.20
2018-03-18T17:42:24.377Z,-1.10
2018-03-18T17:45:05.560Z,-1.05
2018-03-18T17:47:44.749Z,-1.20
2018-03-18T17:50:24.025Z,-1.16
2018-03-18T17:53:04.381Z,-1.30
2018-03-18T17:55:31.903Z,-1.25
2018-03-18T17:57:59.410Z,-1.22
2018-03-18T18:00:26.936Z,-1.29
2018-03-18T18:02:54.484Z,-1.21
2018-03-18T18:05:21.960Z,-1.19
2018-03-18T18:07:50.496Z,-1.19
2018-03-18T18:10:19.265Z,-1.14
2018-03-18T18:12:46.787Z,-1.21
2018-03-18T18:15:14.393Z,-1.25
2018-03-18T18:17:43.025Z,-1.31
2018-03-18T18:20:10.532Z,-1.33
2018-03-18T18:22:40.828Z,-1.21
2018-03-18T18:25:08.932Z,-1.18
2018-03-18T18:27:36.443Z,-1.28
2018-03-18T18:30:03.972Z,-1.33
2018-03-18T18:32:32.948Z,-1.26
2018-03-18T18:35:00.473Z,-1.28
2018-03-18T18:37:27.971Z,-1.24
2018-03-18T18:39:55.486Z,-1.26
2018-03-18T18:42:25.063Z,-1.37
2018-03-18T18:44:52.597Z,-1.47
2018-03-18T18:47:20.106Z,-1.38
2018-03-18T18:49:47.614Z,-1.38
2018-03-18T18:52:15.446Z,-1.34
2018-03-18T18:54:43.344Z,-1.36
2018-03-18T18:57:11.064Z,-1.31
2018-03-18T18:59:38.639Z,-1.36
2018-03-18T19:02:06.148Z,-1.36
2018-03-18T19:04:33.671Z,-1.45
2018-03-18T19:07:01.205Z,-1.60
2018-03-18T19:09:28.816Z,-1.62
2018-03-18T19:11:56.353Z,-1.61
2018-03-18T19:14:23.876Z,-1.73
2018-03-18T19:16:51.517Z,-1.77
2018-03-18T19:19:19.972Z,-1.69
2018-03-18T19:21:47.637Z,-1.69
2018-03-18T19:24:15.184Z,-1.54
2018-03-18T19:26:42.718Z,-1.53
2018-03-18T19:29:10.439Z,-1.59
2018-03-18T19:31:38.066Z,-1.74
2018-03-18T19:34:05.634Z,-1.68
2018-03-18T19:36:33.138Z,-1.67
2018-03-18T19:39:01.697Z,-1.59
2018-03-18T19:41:29.461Z,-1.76
2018-03-18T19:43:58.164Z,-1.74
2018-03-18T19:46:25.880Z,-1.89
2018-03-18T19:48:53.421Z,-1.95
2018-03-18T19:51:20.928Z,-2.02
2018-03-18T19:53:49.728Z,-2.06
2018-03-18T19:56:17.164Z,-2.10
2018-03-18T19:58:45.061Z,-2.06
2018-03-18T20:01:14.763Z,-2.08
2018-03-18T20:03:43.104Z,-2.05
2018-03-18T20:06:10.637Z,-2.10
2018-03-18T20:08:38.589Z,-2.14
2018-03-18T20:11:09.109Z,-2.14
2018-03-18T20:13:36.704Z,-2.33
2018-03-18T20:16:04.495Z,-2.40
2018-03-18T20:18:32.785Z,-2.40
2018-03-18T20:21:00.391Z,-2.45
2018-03-18T20:23:27.887Z,-2.47
2018-03-18T20:25:55.468Z,-2.43
2018-03-18T20:28:23.009Z,-2.48
2018-03-18T20:30:50.577Z,-2.38
2018-03-18T20:33:18.092Z,-2.51
2018-03-18T20:35:46.657Z,-2.52
2018-03-18T20:38:14.198Z,-2.55
2018-03-18T20:40:41.719Z,-2.59
2018-03-18T20:43:09.245Z,-2.55
2018-03-18T20:45:36.820Z,-2.56
2018-03-18T20:48:04.358Z,-2.59
2018-03-18T20:50:33.455Z,-2.67
2018-03-18T20:53:00.988Z,-2.75
2018-03-18T20:55:28.466Z,-2.74
2018-03-18T20:57:55.963Z,-2.63
2018-03-18T21:00:23.922Z,-2.76
2018-03-18T21:02:51.847Z,-2.79
2018-03-18T21:05:19.411Z,-2.70
2018-03-18T21:07:46.915Z,-2.64
2018-03-18T21:10:17.544Z,-2.71
2018-03-18T21:12:45.115Z,-2.73
2018-03-18T21:15:15.767Z,-2.80
2018-03-18T21:17:43.320Z,-2.78
2018-03-18T21:20:10.856Z,-2.72
2018-03-18T21:22:38.352Z,-2.87
2018-03-18T21:25:05.844Z,-2.92
2018-03-18T21:27:33.328Z,-2.88
2018-03-18T21:30:00.796Z,-2.93
2018-03-18T21:32:28.272Z,-2.85
2018-03-18T21:34:55.748Z,-2.82
2018-03-18T21:37:23.231Z,-2.89
2018-03-18T21:39:50.752Z,-2.91
2018-03-18T21:42:22.510Z,-2.96
2018-03-18T21:44:50.028Z,-3.00
2018-03-18T21:47:19.005Z,-2.98
2018-03-18T21:49:46.521Z,-2.99
2018-03-18T21:52:14.025Z,-2.86
2018-03-18T21:54:41.505Z,-2.90
2018-03-18T21:57:09.039Z,-2.99
2018-03-18T21:59:36.555Z,-3.06
2018-03-18T22:02:04.065Z,-3.08
2018-03-18T22:04:32.365Z,-3.17
2018-03-18T22:06:59.860Z,-3.26
2018-03-18T22:09:27.350Z,-3.19
2018-03-18T22:11:55.699Z,-3.11
2018-03-18T22:14:23.160Z,-3.12
2018-03-18T22:16:50.643Z,-3.21
2018-03-18T22:19:19.967Z,-3.14
2018-03-18T22:21:47.443Z,-3.16
2018-03-18T22:24:14.932Z,-3.28
2018-03-18T22:26:42.483Z,-3.28
2018-03-18T22:29:09.988Z,-3.24
2018-03-18T22:31:37.456Z,-3.18
2018-03-18T22:34:05.046Z,-3.19
2018-03-18T22:36:32.555Z,-3.30
2018-03-18T22:39:00.096Z,-3.33
2018-03-18T22:41:27.575Z,-3.40
2018-03-18T22:43:55.122Z,-3.38
2018-03-18T22:46:22.623Z,-3.44
2018-03-18T22:48:50.100Z,-3.38
2018-03-18T22:51:18.111Z,-3.39
2018-03-18T22:53:45.703Z,-3.36
2018-03-18T22:56:13.174Z,-3.52
2018-03-18T22:58:40.654Z,-3.49
2018-03-18T23:01:08.179Z,-3.49
2018-03-18T23:03:35.672Z,-3.55
2018-03-18T23:06:03.165Z,-3.49
2018-03-18T23:08:30.901Z,-3.50
2018-03-18T23:10:58.373Z,-3.50
2018-03-18T23:13:25.907Z,-3.56
2018-03-18T23:15:53.423Z,-3.53
2018-03-18T23:18:20.895Z,-3.61
2018-03-18T23:20:48.595Z,-3.72
2018-03-18T23:23:16.157Z,-3.68
2018-03-18T23:25:43.668Z,-3.69
2018-03-18T23:28:11.181Z,-3.80
2018-03-18T23:30:38.646Z,-3.76
2018-03-18T23:33:06.154Z,-3.79
2018-03-18T23:35:33.667Z,-3.81
2018-03-18T23:38:01.206Z,-3.84
2018-03-18T23:40:29.765Z,-3.82
2018-03-18T23:42:57.277Z,-3.77
2018-03-18T23:45:24.768Z,-3.80
2018-03-18T23:47:52.281Z,-3.78
2018-03-18T23:50:19.946Z,-3.66
2018-03-18T23:52:47.456Z,-3.73
2018-03-18T23:55:14.994Z,-3.87
2018-03-18T23:57:42.554Z,-3.83
